Time;durP1;ratioP1;P1;durP2;ratioP2;P2;SDS_P1;SDS_P2;PMS_P1;PMS_P2;Temp;Humidity;BMP_temperature;BMP_pressure;BME280_temperature;BME280_humidity;BME280_pressure;Samples;Min_cycle;Max_cycle;Signal;HPM_P1;HPM_P2
2022/09/15 00:00:25;;;;;;;2.47;1.60;;;16.20;99.90;;;;;;5036584;28;20022;-72
2022/09/15 00:02:51;;;;;;;3.42;1.90;;;16.20;99.90;;;;;;5036102;28;20120;-72
2022/09/15 00:05:17;;;;;;;3.78;1.75;;;16.20;99.90;;;;;;5036321;28;20053;-72
2022/09/15 00:07:43;;;;;;;5.65;1.80;;;16.10;99.90;;;;;;5036324;28;20532;-71
2022/09/15 00:10:09;;;;;;;3.03;1.63;;;16.10;99.90;;;;;;5036217;28;20037;-72
2022/09/15 00:12:35;;;;;;;3.30;1.92;;;16.00;99.90;;;;;;5035816;28;20036;-71
2022/09/15 00:15:01;;;;;;;3.97;1.70;;;16.00;99.90;;;;;;5036219;28;20030;-72
2022/09/15 00:17:27;;;;;;;3.40;1.70;;;16.00;99.90;;;;;;5035839;28;20033;-72
2022/09/15 00:19:52;;;;;;;2.50;1.58;;;16.00;99.90;;;;;;5035919;28;20033;-72
2022/09/15 00:22:19;;;;;;;3.13;1.50;;;16.10;99.90;;;;;;5036053;28;20112;-72
2022/09/15 00:24:48;;;;;;;3.60;1.85;;;16.10;99.90;;;;;;5036055;28;20056;-72
2022/09/15 00:27:17;;;;;;;2.65;1.65;;;16.10;99.90;;;;;;5035738;28;20371;-72
2022/09/15 00:29:42;;;;;;;4.40;2.30;;;16.20;99.90;;;;;;5035893;28;20033;-71
2022/09/15 00:32:08;;;;;;;4.47;2.30;;;16.20;99.90;;;;;;5035393;28;20030;-71
2022/09/15 00:34:34;;;;;;;4.03;2.03;;;16.20;99.90;;;;;;5034321;28;20419;-71
2022/09/15 00:37:00;;;;;;;3.85;1.90;;;16.10;99.90;;;;;;5035707;28;20083;-71
2022/09/15 00:39:25;;;;;;;3.97;1.75;;;16.00;99.90;;;;;;5034514;28;20108;-72
2022/09/15 00:41:51;;;;;;;4.88;2.05;;;15.90;99.90;;;;;;5035622;28;20112;-72
2022/09/15 00:44:22;;;;;;;5.25;1.60;;;15.90;99.90;;;;;;5035666;28;20017;-72
2022/09/15 00:46:52;;;;;;;3.20;1.95;;;15.90;99.90;;;;;;5035346;28;20029;-72
2022/09/15 00:49:25;;;;;;;2.67;1.98;;;15.90;99.90;;;;;;5035154;28;20079;-72
2022/09/15 00:52:03;;;;;;;4.15;2.10;;;15.80;99.90;;;;;;5034750;28;20018;-72
2022/09/15 00:54:41;;;;;;;2.97;1.80;;;15.80;99.90;;;;;;5035734;28;20018;-71
2022/09/15 00:57:14;;;;;;;3.35;1.83;;;15.80;99.90;;;;;;5035425;28;20459;-71
2022/09/15 00:59:41;;;;;;;4.00;2.10;;;15.80;99.90;;;;;;5033917;28;20025;-72
2022/09/15 01:02:19;;;;;;;4.85;2.13;;;15.70;99.90;;;;;;5035164;28;20455;-72
2022/09/15 01:04:45;;;;;;;3.92;1.83;;;15.70;99.90;;;;;;5035231;28;20021;-72
2022/09/15 01:07:15;;;;;;;2.95;1.67;;;15.60;99.90;;;;;;5035131;28;20036;-72
2022/09/15 01:10:04;;;;;;;4.68;1.75;;;15.60;99.90;;;;;;5035047;28;20163;-72
2022/09/15 01:12:30;;;;;;;4.20;1.95;;;15.70;99.90;;;;;;5034905;28;20032;-73
2022/09/15 01:14:56;;;;;;;2.55;1.70;;;15.70;99.90;;;;;;5035232;28;20034;-72
2022/09/15 01:17:55;;;;;;;3.10;1.80;;;15.70;99.90;;;;;;5035047;28;20524;-72
2022/09/15 01:20:53;;;;;;;3.63;1.92;;;15.80;99.90;;;;;;5034900;28;20018;-71
2022/09/15 01:23:43;;;;;;;3.80;1.77;;;15.80;99.90;;;;;;5034863;28;20523;-71
2022/09/15 01:26:20;;;;;;;4.03;1.90;;;15.80;99.90;;;;;;5034681;28;20025;-71
2022/09/15 01:28:58;;;;;;;3.40;1.83;;;15.80;99.90;;;;;;5033296;28;20088;-72
2022/09/15 01:34:48;;;;;;;4.35;1.80;;;15.80;99.90;;;;;;5034708;28;20552;-71
2022/09/15 01:37:19;;;;;;;2.58;1.40;;;15.80;99.90;;;;;;5034695;28;20112;-71
2022/09/15 01:39:46;;;;;;;2.92;1.52;;;15.80;99.90;;;;;;5034959;28;20021;-72
2022/09/15 01:42:15;;;;;;;2.55;1.58;;;15.80;99.90;;;;;;5034765;28;20474;-71
2022/09/15 01:44:55;;;;;;;4.07;1.90;;;15.70;99.90;;;;;;5034648;28;20482;-71
2022/09/15 01:47:23;;;;;;;5.43;1.70;;;15.70;99.90;;;;;;5034953;28;20025;-70
2022/09/15 01:49:58;;;;;;;5.05;1.80;;;15.70;99.90;;;;;;5034298;28;20035;-70
2022/09/15 01:52:25;;;;;;;3.53;1.90;;;15.60;99.90;;;;;;5034453;28;20105;-71
2022/09/15 01:54:54;;;;;;;5.18;2.00;;;15.50;99.90;;;;;;5034221;28;20075;-71
2022/09/15 01:57:21;;;;;;;3.75;1.60;;;15.50;99.90;;;;;;5034458;28;20481;-71
2022/09/15 01:59:52;;;;;;;3.10;1.75;;;15.50;99.90;;;;;;5034003;28;20394;-71
2022/09/15 02:02:30;;;;;;;4.07;1.63;;;15.50;99.90;;;;;;5033504;28;20049;-71
2022/09/15 02:05:05;;;;;;;3.63;1.83;;;15.50;99.90;;;;;;5034168;28;20385;-72
2022/09/15 02:07:44;;;;;;;3.25;1.80;;;15.50;99.90;;;;;;5034130;28;20053;-71
2022/09/15 02:10:32;;;;;;;2.45;1.38;;;15.50;99.90;;;;;;5033795;28;20049;-71
2022/09/15 02:13:07;;;;;;;2.38;1.50;;;15.50;99.90;;;;;;5033652;28;20021;-71
2022/09/15 02:15:45;;;;;;;3.13;1.60;;;15.40;99.90;;;;;;5034039;28;20022;-71
2022/09/15 02:18:15;;;;;;;3.25;1.90;;;15.50;99.90;;;;;;5033949;28;20060;-72
2022/09/15 02:20:55;;;;;;;4.30;1.67;;;15.50;99.90;;;;;;5033539;28;20021;-72
2022/09/15 02:23:30;;;;;;;5.00;2.20;;;15.50;99.90;;;;;;5033908;28;20018;-72
2022/09/15 02:26:04;;;;;;;3.58;1.90;;;15.50;99.90;;;;;;5033817;28;20021;-72
2022/09/15 02:28:34;;;;;;;3.53;1.83;;;15.50;99.90;;;;;;5033544;28;20087;-72
2022/09/15 02:31:02;;;;;;;3.53;1.85;;;15.50;99.90;;;;;;5033991;28;20048;-71
2022/09/15 02:33:33;;;;;;;4.68;1.98;;;15.50;99.90;;;;;;5033482;28;20044;-72
2022/09/15 02:36:01;;;;;;;3.72;1.75;;;15.50;99.90;;;;;;5033667;28;20511;-71
2022/09/15 02:38:32;;;;;;;3.63;1.70;;;15.50;99.90;;;;;;5033326;28;20021;-71
2022/09/15 02:40:58;;;;;;;4.03;1.80;;;15.40;99.90;;;;;;5033543;28;20029;-71
2022/09/15 02:43:24;;;;;;;5.38;1.60;;;15.30;99.90;;;;;;5033559;28;20091;-71
2022/09/15 02:45:50;;;;;;;3.17;1.60;;;15.30;99.90;;;;;;5033241;28;20033;-72
2022/09/15 02:48:16;;;;;;;3.15;1.65;;;15.20;99.90;;;;;;5033276;28;20037;-72
2022/09/15 02:50:41;;;;;;;4.47;1.70;;;15.20;99.90;;;;;;5033396;28;20029;-72
2022/09/15 02:53:07;;;;;;;3.42;1.70;;;15.20;99.90;;;;;;5033394;28;20540;-72
2022/09/15 02:55:33;;;;;;;4.70;1.83;;;15.20;99.90;;;;;;5031935;28;20056;-71
2022/09/15 02:57:59;;;;;;;3.53;1.98;;;15.20;99.90;;;;;;5033141;28;20021;-71
2022/09/15 03:00:27;;;;;;;4.50;2.08;;;15.20;99.90;;;;;;5033013;28;20431;-72
2022/09/15 03:02:54;;;;;;;4.13;1.88;;;15.10;99.90;;;;;;5033050;28;20060;-72
2022/09/15 03:05:25;;;;;;;3.15;1.90;;;15.10;99.90;;;;;;5033298;28;20382;-72
2022/09/15 03:07:52;;;;;;;2.50;1.90;;;15.20;99.90;;;;;;5033346;28;20096;-72
2022/09/15 03:10:18;;;;;;;3.45;2.10;;;15.20;99.90;;;;;;5033631;28;20078;-72
2022/09/15 03:12:48;;;;;;;2.83;1.83;;;15.20;99.90;;;;;;5032981;28;20099;-72
2022/09/15 03:15:16;;;;;;;4.10;1.92;;;15.30;99.90;;;;;;5036908;28;20096;-72
2022/09/15 03:17:44;;;;;;;2.80;1.67;;;15.30;99.90;;;;;;5037553;28;20035;-72
2022/09/15 03:20:12;;;;;;;5.03;2.15;;;15.30;99.90;;;;;;5036934;28;20025;-71
2022/09/15 03:22:38;;;;;;;2.97;1.70;;;15.30;99.90;;;;;;5036736;28;20036;-71
2022/09/15 03:25:05;;;;;;;2.80;1.45;;;15.40;99.90;;;;;;5036899;28;20029;-71
2022/09/15 03:27:32;;;;;;;3.92;1.80;;;15.50;99.90;;;;;;5036715;28;20109;-71
2022/09/15 03:29:57;;;;;;;2.35;1.55;;;15.50;99.90;;;;;;5037204;28;20026;-71
2022/09/15 03:32:23;;;;;;;4.00;1.77;;;15.50;99.90;;;;;;5035490;28;20039;-71
2022/09/15 03:34:49;;;;;;;3.03;1.70;;;15.50;99.90;;;;;;5037135;28;20040;-72
2022/09/15 03:37:15;;;;;;;3.63;1.67;;;15.50;99.90;;;;;;5036850;28;20385;-72
2022/09/15 03:39:40;;;;;;;2.90;1.75;;;15.50;99.90;;;;;;5036821;28;20478;-72
2022/09/15 03:42:06;;;;;;;2.67;1.27;;;15.50;99.90;;;;;;5036795;28;20148;-71
2022/09/15 03:44:32;;;;;;;3.92;1.50;;;15.50;99.90;;;;;;5035760;28;20120;-71
2022/09/15 03:46:58;;;;;;;3.28;1.50;;;15.50;99.90;;;;;;5036909;28;20979;-72
2022/09/15 03:49:24;;;;;;;2.60;1.58;;;15.40;99.90;;;;;;5036797;28;20087;-71
2022/09/15 03:51:50;;;;;;;4.28;1.50;;;15.40;99.90;;;;;;5036041;28;20068;-71
2022/09/15 03:54:17;;;;;;;5.63;1.70;;;15.30;99.90;;;;;;5036609;28;20025;-71
2022/09/15 03:56:42;;;;;;;2.33;1.52;;;15.30;99.90;;;;;;5036670;28;20026;-71
2022/09/15 03:59:08;;;;;;;3.72;2.20;;;15.30;99.90;;;;;;5035179;28;20080;-71
2022/09/15 04:01:34;;;;;;;3.10;1.85;;;15.30;99.90;;;;;;5035303;28;20038;-71
2022/09/15 04:04:00;;;;;;;5.78;1.77;;;15.20;99.90;;;;;;5036524;28;20033;-71
2022/09/15 04:06:26;;;;;;;2.78;1.83;;;15.20;99.90;;;;;;5034491;28;20547;-71
2022/09/15 04:08:53;;;;;;;3.20;1.60;;;15.20;99.90;;;;;;5036483;28;20055;-71
2022/09/15 04:11:20;;;;;;;4.45;1.65;;;15.10;99.90;;;;;;5036371;28;20117;-72
2022/09/15 04:13:47;;;;;;;2.88;1.80;;;15.20;99.90;;;;;;5034885;28;20425;-72
2022/09/15 04:16:16;;;;;;;3.28;2.10;;;15.10;99.90;;;;;;5036420;28;20026;-72
2022/09/15 04:18:41;;;;;;;4.82;2.63;;;15.10;99.90;;;;;;5036262;28;20026;-72
2022/09/15 04:21:11;;;;;;;6.00;2.80;;;15.20;99.90;;;;;;5035107;28;20053;-72
2022/09/15 04:23:37;;;;;;;3.88;2.10;;;15.20;99.90;;;;;;5036194;28;20064;-71
2022/09/15 04:26:06;;;;;;;4.15;2.10;;;15.30;99.90;;;;;;5035900;28;20478;-71
2022/09/15 04:28:35;;;;;;;5.07;2.35;;;15.30;99.90;;;;;;5036153;28;20025;-72
2022/09/15 04:31:09;;;;;;;4.68;2.28;;;15.30;99.90;;;;;;5035965;28;20032;-72
2022/09/15 04:33:36;;;;;;;3.70;2.80;;;15.30;99.90;;;;;;5036236;28;20021;-72
2022/09/15 04:36:14;;;;;;;5.10;2.28;;;15.20;99.90;;;;;;5035694;28;20022;-71
2022/09/15 04:38:39;;;;;;;3.13;1.90;;;15.20;99.90;;;;;;5036007;28;20017;-72
2022/09/15 04:41:06;;;;;;;4.68;2.30;;;15.20;99.90;;;;;;5035607;28;20032;-71
2022/09/15 04:43:32;;;;;;;5.63;2.55;;;15.10;99.90;;;;;;5035843;28;20030;-71
2022/09/15 04:45:58;;;;;;;3.38;2.20;;;15.10;99.90;;;;;;5035826;28;20117;-72
2022/09/15 04:48:24;;;;;;;5.78;3.35;;;15.10;99.90;;;;;;5035542;28;20060;-71
2022/09/15 04:50:50;;;;;;;6.60;3.80;;;15.10;99.90;;;;;;5035376;28;20037;-72
2022/09/15 04:53:18;;;;;;;5.63;3.63;;;15.00;99.90;;;;;;5035479;28;20530;-72
2022/09/15 04:55:43;;;;;;;4.18;2.58;;;15.00;99.90;;;;;;5035394;28;20029;-72
2022/09/15 04:58:10;;;;;;;3.60;2.40;;;15.00;99.90;;;;;;5035590;28;20084;-72
2022/09/15 05:00:42;;;;;;;4.93;2.25;;;15.00;99.90;;;;;;5035343;28;20053;-72
2022/09/15 05:03:09;;;;;;;5.05;2.33;;;15.00;99.90;;;;;;5035182;28;20037;-72
2022/09/15 05:05:35;;;;;;;3.53;2.00;;;15.00;99.90;;;;;;5035174;28;20512;-72
2022/09/15 05:08:01;;;;;;;3.85;2.17;;;15.00;99.90;;;;;;5035187;28;20034;-72
2022/09/15 05:10:26;;;;;;;3.85;1.90;;;15.00;99.90;;;;;;5035559;28;20059;-72
2022/09/15 05:12:52;;;;;;;3.47;1.60;;;15.00;99.90;;;;;;5035284;28;20038;-71
2022/09/15 05:15:18;;;;;;;2.63;1.52;;;15.00;99.90;;;;;;5035281;28;20029;-72
2022/09/15 05:17:44;;;;;;;3.25;1.88;;;15.00;99.90;;;;;;5034933;28;20168;-72
2022/09/15 05:20:10;;;;;;;3.20;1.70;;;15.10;99.90;;;;;;5035236;28;20038;-72
2022/09/15 05:22:35;;;;;;;2.92;1.60;;;15.10;99.90;;;;;;5034845;28;20029;-72
2022/09/15 05:25:01;;;;;;;3.30;2.00;;;15.10;99.90;;;;;;5034856;28;20108;-72
2022/09/15 05:27:30;;;;;;;3.40;1.80;;;15.10;99.90;;;;;;5033928;28;20033;-72
2022/09/15 05:29:56;;;;;;;4.95;1.88;;;15.10;99.90;;;;;;5034736;28;20022;-72
2022/09/15 05:32:21;;;;;;;5.80;2.25;;;15.00;99.90;;;;;;5034537;28;20389;-72
2022/09/15 05:34:47;;;;;;;3.03;1.95;;;15.00;99.90;;;;;;5034903;28;20049;-72
2022/09/15 05:37:12;;;;;;;3.28;1.75;;;15.00;99.90;;;;;;5034206;28;20025;-71
2022/09/15 05:39:39;;;;;;;4.03;1.98;;;15.00;99.90;;;;;;5034569;28;20060;-71
2022/09/15 05:42:05;;;;;;;4.82;2.20;;;15.00;99.90;;;;;;5034510;28;20021;-71
2022/09/15 05:44:31;;;;;;;2.95;2.08;;;15.00;99.90;;;;;;5034355;28;20022;-71
2022/09/15 05:46:57;;;;;;;6.78;2.30;;;15.10;99.90;;;;;;5034666;28;20055;-71
2022/09/15 05:49:23;;;;;;;4.18;2.00;;;15.10;99.90;;;;;;5034649;28;20101;-71
2022/09/15 05:51:48;;;;;;;3.38;2.20;;;15.10;99.90;;;;;;5034306;28;20052;-71
2022/09/15 05:54:14;;;;;;;3.50;2.22;;;15.00;99.90;;;;;;5033003;28;20499;-71
2022/09/15 05:56:40;;;;;;;6.53;2.17;;;15.00;99.90;;;;;;5034706;28;20075;-71
2022/09/15 05:59:05;;;;;;;4.97;3.17;;;15.10;99.90;;;;;;5032951;28;20106;-71
2022/09/15 06:01:31;;;;;;;5.30;2.90;;;15.10;99.90;;;;;;5034087;28;20029;-71
2022/09/15 06:03:57;;;;;;;3.90;2.22;;;15.00;99.90;;;;;;5034124;28;20061;-71
2022/09/15 06:06:24;;;;;;;5.82;2.53;;;15.00;99.90;;;;;;5034075;28;20470;-71
2022/09/15 06:08:55;;;;;;;6.95;3.40;;;15.00;99.90;;;;;;5033966;28;20033;-71
2022/09/15 06:11:24;;;;;;;7.25;3.17;;;15.00;99.90;;;;;;5033952;28;20071;-71
2022/09/15 06:13:49;;;;;;;5.93;2.83;;;14.90;99.90;;;;;;5035460;28;20474;-70
2022/09/15 06:16:18;;;;;;;4.03;2.47;;;14.90;99.90;;;;;;5033872;28;20029;-70
2022/09/15 06:18:44;;;;;;;3.53;2.03;;;14.90;99.90;;;;;;5033887;28;20026;-71
2022/09/15 06:21:13;;;;;;;3.85;1.98;;;14.90;99.90;;;;;;5032618;28;20075;-71
2022/09/15 06:23:39;;;;;;;3.25;1.92;;;14.90;99.90;;;;;;5033760;28;20049;-71
2022/09/15 06:26:07;;;;;;;5.38;2.67;;;14.90;99.90;;;;;;5033847;28;20036;-71
2022/09/15 06:28:33;;;;;;;5.75;2.72;;;14.90;99.90;;;;;;5032433;28;20036;-70
2022/09/15 06:30:59;;;;;;;3.92;2.72;;;14.90;99.90;;;;;;5033611;28;20423;-71
2022/09/15 06:33:25;;;;;;;4.07;2.50;;;15.00;99.90;;;;;;5033606;28;20033;-71
2022/09/15 06:35:51;;;;;;;3.58;1.98;;;15.00;99.90;;;;;;5032385;28;20025;-72
2022/09/15 06:38:17;;;;;;;3.88;2.25;;;15.10;99.90;;;;;;5034148;28;20045;-72
2022/09/15 06:40:44;;;;;;;3.13;1.95;;;15.10;99.90;;;;;;5033468;28;20049;-71
2022/09/15 06:43:09;;;;;;;3.80;2.00;;;15.10;99.90;;;;;;5033751;28;20032;-71
2022/09/15 06:45:35;;;;;;;3.85;2.03;;;15.10;99.90;;;;;;5033496;28;20033;-71
2022/09/15 06:48:01;;;;;;;3.67;2.00;;;15.20;99.90;;;;;;5033686;28;20055;-72
2022/09/15 06:50:27;;;;;;;3.58;2.40;;;15.20;99.90;;;;;;5033627;28;20036;-71
2022/09/15 06:52:53;;;;;;;3.70;2.33;;;15.20;99.90;;;;;;5033892;28;20025;-71
2022/09/15 06:55:18;;;;;;;3.85;2.40;;;15.20;99.90;;;;;;5033605;28;20556;-71
2022/09/15 06:57:44;;;;;;;3.85;2.38;;;15.20;99.90;;;;;;5032745;28;20029;-71
2022/09/15 07:00:10;;;;;;;3.53;2.13;;;15.30;99.90;;;;;;5033291;28;20022;-71
2022/09/15 07:02:36;;;;;;;2.58;1.90;;;15.30;99.90;;;;;;5033112;28;20574;-71
2022/09/15 07:05:02;;;;;;;3.08;2.08;;;15.30;99.90;;;;;;5033288;28;20060;-72
2022/09/15 07:07:28;;;;;;;3.80;1.70;;;15.30;99.90;;;;;;5033280;28;20026;-71
2022/09/15 07:09:54;;;;;;;4.03;2.13;;;15.40;99.90;;;;;;5034479;28;20409;-72
2022/09/15 07:12:20;;;;;;;4.63;2.33;;;15.40;99.90;;;;;;5031864;28;20044;-71
2022/09/15 07:14:45;;;;;;;3.72;2.40;;;15.40;99.90;;;;;;5033284;28;20030;-71
2022/09/15 07:17:11;;;;;;;4.68;2.42;;;15.40;99.90;;;;;;5033145;28;20026;-71
2022/09/15 07:19:37;;;;;;;4.47;2.03;;;15.40;99.90;;;;;;5033292;28;20025;-72
2022/09/15 07:22:03;;;;;;;5.22;2.08;;;15.30;99.90;;;;;;5032217;28;20022;-72
2022/09/15 07:24:28;;;;;;;3.17;2.10;;;15.30;99.90;;;;;;5033069;28;20032;-72
2022/09/15 07:26:54;;;;;;;3.10;2.10;;;15.30;99.90;;;;;;5033008;28;20021;-71
2022/09/15 07:29:20;;;;;;;5.75;2.53;;;15.30;99.90;;;;;;5031837;28;20397;-72
2022/09/15 07:31:45;;;;;;;6.18;3.45;;;15.30;99.90;;;;;;5033068;28;20030;-72
2022/09/15 07:34:11;;;;;;;6.45;4.00;;;15.30;99.90;;;;;;5015231;28;20033;-72
2022/09/15 07:36:37;;;;;;;5.28;3.63;;;15.30;99.90;;;;;;5032989;28;20030;-72
2022/09/15 07:39:03;;;;;;;6.13;3.47;;;15.30;99.90;;;;;;5032926;28;20033;-72
2022/09/15 07:41:30;;;;;;;4.50;2.78;;;15.30;99.90;;;;;;5033390;28;20044;-72
2022/09/15 07:43:57;;;;;;;5.25;2.80;;;15.30;99.90;;;;;;5032077;28;20087;-72
2022/09/15 07:46:25;;;;;;;4.63;2.17;;;15.30;99.90;;;;;;5032887;28;20033;-72
2022/09/15 07:48:52;;;;;;;4.15;2.40;;;15.30;99.90;;;;;;5031683;28;20061;-72
2022/09/15 07:51:18;;;;;;;3.88;2.22;;;15.40;99.90;;;;;;5032790;28;20025;-71
2022/09/15 07:53:46;;;;;;;3.03;1.83;;;15.40;99.90;;;;;;5032793;28;20029;-72
2022/09/15 07:56:12;;;;;;;3.58;1.77;;;15.40;99.90;;;;;;5032803;28;20043;-71
2022/09/15 07:58:38;;;;;;;3.95;2.05;;;15.40;99.90;;;;;;5031697;28;20044;-71
2022/09/15 08:01:11;;;;;;;3.97;1.90;;;15.50;99.90;;;;;;5035962;28;20033;-71
2022/09/15 08:03:41;;;;;;;3.22;1.70;;;15.50;99.90;;;;;;5035185;28;20025;-71
2022/09/15 08:06:08;;;;;;;4.65;2.22;;;15.50;99.90;;;;;;5036348;28;20033;-71
2022/09/15 08:08:37;;;;;;;4.25;2.20;;;15.60;99.90;;;;;;5036314;28;20394;-71
2022/09/15 08:11:08;;;;;;;4.10;1.90;;;15.60;99.90;;;;;;5036174;28;20025;-71
2022/09/15 08:13:34;;;;;;;4.55;2.00;;;15.70;99.90;;;;;;5036126;28;20107;-71
2022/09/15 08:16:08;;;;;;;5.00;2.50;;;15.70;99.90;;;;;;5036151;28;20056;-71
2022/09/15 08:18:35;;;;;;;5.30;2.33;;;15.70;99.90;;;;;;5034976;28;20022;-71
2022/09/15 08:21:12;;;;;;;4.32;2.05;;;15.60;99.90;;;;;;5036199;28;20032;-71
2022/09/15 08:23:38;;;;;;;4.80;1.88;;;15.70;99.90;;;;;;5036354;28;20032;-71
2022/09/15 08:26:08;;;;;;;3.00;1.98;;;15.60;99.90;;;;;;5036128;28;20482;-71
2022/09/15 08:28:35;;;;;;;2.78;1.70;;;15.60;99.90;;;;;;5034669;28;20038;-71
2022/09/15 08:31:06;;;;;;;4.28;1.83;;;15.60;99.90;;;;;;5035815;28;20030;-71
2022/09/15 08:33:32;;;;;;;3.03;1.65;;;15.60;99.90;;;;;;5036085;28;20053;-71
2022/09/15 08:36:04;;;;;;;2.85;1.70;;;15.60;99.90;;;;;;5035752;28;20084;-71
2022/09/15 08:38:30;;;;;;;3.22;1.80;;;15.60;99.90;;;;;;5035883;28;20384;-71
2022/09/15 08:41:04;;;;;;;4.38;2.30;;;15.80;99.90;;;;;;5035908;28;20465;-71
2022/09/15 08:43:36;;;;;;;4.13;2.50;;;15.90;99.90;;;;;;5035976;28;20474;-71
2022/09/15 08:46:08;;;;;;;4.90;2.50;;;16.20;99.90;;;;;;5036175;28;20028;-71
2022/09/15 08:48:44;;;;;;;4.07;2.65;;;16.30;99.90;;;;;;5035588;28;20083;-71
2022/09/15 08:51:17;;;;;;;3.60;2.20;;;16.50;99.90;;;;;;5035427;28;20032;-71
2022/09/15 08:53:51;;;;;;;3.83;2.13;;;16.60;99.90;;;;;;5035952;28;20021;-71
2022/09/15 08:56:19;;;;;;;4.85;2.17;;;16.80;99.90;;;;;;5035658;28;20022;-71
2022/09/15 08:58:45;;;;;;;4.80;2.40;;;17.00;99.90;;;;;;5034087;28;20030;-72
2022/09/15 09:01:36;;;;;;;3.47;1.88;;;17.00;99.90;;;;;;5035079;28;20482;-71
2022/09/15 09:04:24;;;;;;;3.93;1.97;;;17.10;99.90;;;;;;5035255;28;20544;-70
2022/09/15 09:07:17;;;;;;;3.00;2.10;;;17.30;99.90;;;;;;5035170;28;20026;-72
2022/09/15 09:10:01;;;;;;;3.10;1.60;;;17.40;99.90;;;;;;5033860;28;20026;-71
2022/09/15 09:12:42;;;;;;;2.47;1.50;;;17.60;99.90;;;;;;5034487;28;20053;-71
2022/09/15 09:15:48;;;;;;;4.47;1.73;;;17.80;99.90;;;;;;5035116;28;20103;-70
2022/09/15 09:18:29;;;;;;;3.90;2.30;;;18.00;99.90;;;;;;5035036;28;20075;-71
2022/09/15 09:20:58;;;;;;;;;;;18.10;99.90;;;;;;5035717;28;20026;-71
2022/09/15 09:23:27;;;;;;;2.90;1.73;;;18.20;99.90;;;;;;5034892;28;19947;-71
2022/09/15 09:25:54;;;;;;;4.20;1.88;;;18.30;99.90;;;;;;5033554;28;20470;-71
2022/09/15 09:28:39;;;;;;;3.55;1.80;;;18.30;99.90;;;;;;5034757;28;20025;-71
2022/09/15 09:31:10;;;;;;;2.72;1.60;;;18.30;99.90;;;;;;5034866;28;20025;-71
2022/09/15 09:33:54;;;;;;;;;;;18.50;99.90;;;;;;5035049;28;20436;-71
2022/09/15 09:36:20;;;;;;;2.50;1.42;;;18.70;99.90;;;;;;5034643;28;20040;-70
2022/09/15 09:38:47;;;;;;;3.47;1.65;;;18.90;99.90;;;;;;5034871;28;20354;-71
2022/09/15 09:41:34;;;;;;;2.90;1.58;;;19.10;99.90;;;;;;5034864;28;20041;-71
2022/09/15 09:44:02;;;;;;;3.97;1.30;;;19.20;99.90;;;;;;5034788;28;20096;-71
2022/09/15 09:46:28;;;;;;;3.17;1.45;;;19.40;99.90;;;;;;5033819;28;20034;-71
2022/09/15 09:49:11;;;;;;;3.80;1.40;;;19.50;99.90;;;;;;5034399;28;20057;-71
2022/09/15 09:51:51;;;;;;;2.10;1.27;;;19.50;99.90;;;;;;5034959;28;20462;-71
2022/09/15 09:54:19;;;;;;;2.83;0.98;;;19.50;99.90;;;;;;5034601;28;20022;-71
2022/09/15 09:56:50;;;;;;;3.38;0.80;;;19.60;99.90;;;;;;5034230;28;20021;-71
2022/09/15 09:59:38;;;;;;;2.55;1.02;;;19.50;99.90;;;;;;5033445;28;20030;-71
2022/09/15 10:02:10;;;;;;;4.63;1.35;;;19.60;99.90;;;;;;5034022;28;20405;-71
2022/09/15 10:04:37;;;;;;;1.55;1.00;;;19.70;99.90;;;;;;5034151;28;20021;-71
2022/09/15 10:07:04;;;;;;;2.45;1.33;;;19.90;99.90;;;;;;5034075;28;20486;-71
2022/09/15 10:09:30;;;;;;;4.00;1.50;;;20.00;99.90;;;;;;5034319;28;20370;-71
2022/09/15 10:11:59;;;;;;;2.33;1.08;;;20.10;99.90;;;;;;5033970;28;20541;-72
2022/09/15 10:14:28;;;;;;;3.00;1.02;;;20.20;99.90;;;;;;5033860;28;20032;-72
2022/09/15 10:16:58;;;;;;;3.22;1.10;;;20.30;99.90;;;;;;5033899;28;20036;-72
2022/09/15 10:19:26;;;;;;;6.07;1.20;;;20.40;99.90;;;;;;5033807;28;20021;-72
2022/09/15 10:21:51;;;;;;;4.13;1.20;;;20.40;99.90;;;;;;5033765;28;20480;-72
2022/09/15 10:24:43;;;;;;;4.00;1.90;;;20.60;99.90;;;;;;5034278;28;20041;-71
2022/09/15 10:27:31;;;;;;;4.10;1.52;;;20.60;99.90;;;;;;5033701;28;20053;-71
2022/09/15 10:30:12;;;;;;;2.63;1.10;;;20.60;99.90;;;;;;5033722;28;20029;-72
2022/09/15 10:32:38;;;;;;;;;;;20.50;99.90;;;;;;5035029;28;20140;-71
2022/09/15 10:35:06;;;;;;;3.00;1.40;;;20.60;99.90;;;;;;5033635;28;19948;-72
2022/09/15 10:37:45;;;;;;;2.28;1.55;;;20.60;99.90;;;;;;5033505;28;20017;-72
2022/09/15 10:40:34;;;;;;;4.18;2.08;;;20.70;99.90;;;;;;5032284;28;20022;-72
2022/09/15 10:43:36;;;;;;;3.00;1.70;;;20.80;99.90;;;;;;5033841;28;20021;-72
2022/09/15 10:46:36;;;;;;;2.92;1.70;;;20.90;99.90;;;;;;5034055;28;20017;-72
2022/09/15 10:49:04;;;;;;;4.22;2.50;;;21.10;99.90;;;;;;5033106;28;20512;-72
2022/09/15 10:51:42;;;;;;;5.00;3.30;;;21.10;99.90;;;;;;5033350;28;20030;-72
2022/09/15 10:54:16;;;;;;;4.43;2.60;;;21.00;99.90;;;;;;5033339;28;20117;-72
2022/09/15 10:56:47;;;;;;;6.20;3.42;;;21.00;99.90;;;;;;5033361;28;20466;-72
2022/09/15 10:59:34;;;;;;;3.95;2.83;;;20.90;99.90;;;;;;5033672;28;20021;-72
2022/09/15 11:02:21;;;;;;;6.30;3.78;;;20.90;99.90;;;;;;5033543;28;20417;-72
2022/09/15 11:05:06;;;;;;;3.85;3.00;;;20.90;99.90;;;;;;5033590;28;20022;-72
2022/09/15 11:07:57;;;;;;;3.78;2.70;;;20.80;99.90;;;;;;5033342;28;20560;-72
2022/09/15 11:10:55;;;;;;;4.07;2.35;;;21.00;99.90;;;;;;5031905;28;20021;-72
2022/09/15 11:13:29;;;;;;;2.47;1.50;;;21.10;99.90;;;;;;5028896;28;20040;-71
2022/09/15 11:16:02;;;;;;;4.05;1.58;;;21.40;99.90;;;;;;5033509;28;20378;-72
2022/09/15 11:18:36;;;;;;;1.70;1.23;;;21.60;99.90;;;;;;5031977;28;20049;-72
2022/09/15 11:21:24;;;;;;;2.83;1.50;;;21.80;99.90;;;;;;5033092;28;20470;-72
2022/09/15 11:24:02;;;;;;;2.47;1.25;;;21.80;99.90;;;;;;5033139;28;20030;-72
2022/09/15 11:26:45;;;;;;;2.58;1.40;;;21.60;99.90;;;;;;5033391;28;20534;-73
2022/09/15 11:29:24;;;;;;;2.15;1.50;;;21.50;99.90;;;;;;5031889;28;20035;-72
2022/09/15 11:32:13;;;;;;;2.95;1.20;;;21.40;99.90;;;;;;5033249;28;20021;-73
2022/09/15 11:34:52;;;;;;;3.15;1.67;;;21.40;99.90;;;;;;5034598;28;20029;-72
2022/09/15 11:37:23;;;;;;;2.03;1.30;;;21.30;99.90;;;;;;5036946;28;20482;-73
2022/09/15 11:40:00;;;;;;;2.53;1.60;;;21.30;99.90;;;;;;5037767;28;20060;-73
2022/09/15 11:42:38;;;;;;;2.80;1.65;;;21.30;99.90;;;;;;5037029;28;20056;-72
2022/09/15 11:45:13;;;;;;;2.97;1.20;;;21.20;99.90;;;;;;5036787;28;20148;-72
2022/09/15 11:47:43;;;;;;;2.30;1.20;;;21.30;99.90;;;;;;5036313;28;20451;-72
2022/09/15 11:50:37;;;;;;;1.70;0.98;;;21.30;99.90;;;;;;5036899;28;20017;-72
2022/09/15 11:53:26;;;;;;;3.05;1.10;;;21.30;99.90;;;;;;5036828;28;20028;-72
2022/09/15 11:56:20;;;;;;;3.00;1.08;;;21.40;99.90;;;;;;5036828;28;20025;-72
2022/09/15 11:59:21;;;;;;;1.55;0.65;;;21.50;99.90;;;;;;5036479;28;20488;-72
2022/09/15 12:02:01;;;;;;;0.80;0.60;;;21.60;99.90;;;;;;5035455;28;20049;-71
2022/09/15 12:04:35;;;;;;;1.85;0.80;;;21.80;99.90;;;;;;5035204;28;20120;-70
2022/09/15 12:07:09;;;;;;;2.33;0.70;;;21.90;99.90;;;;;;5036922;28;20056;-72
2022/09/15 12:09:35;;;;;;;1.83;0.75;;;21.90;99.90;;;;;;5036935;28;20026;-71
2022/09/15 12:12:09;;;;;;;2.53;0.80;;;21.90;99.90;;;;;;5034909;28;20035;-72
2022/09/15 12:14:42;;;;;;;1.77;0.82;;;22.10;99.90;;;;;;5034923;28;20501;-70
2022/09/15 12:17:39;;;;;;;1.52;0.70;;;22.20;99.90;;;;;;5036460;28;20022;-72
2022/09/15 12:20:27;;;;;;;2.28;0.70;;;22.10;99.90;;;;;;5033646;28;20072;-71
2022/09/15 12:22:55;;;;;;;2.53;0.77;;;21.90;99.90;;;;;;5036353;28;20072;-70
2022/09/15 12:25:32;;;;;;;1.52;0.80;;;21.70;99.90;;;;;;5036014;28;20075;-71
2022/09/15 12:28:53;;;;;;;1.60;0.70;;;21.40;99.90;;;;;;5035998;28;20100;-72
2022/09/15 12:31:38;;;;;;;1.77;0.90;;;21.20;99.90;;;;;;5033832;28;20030;-73
2022/09/15 12:34:24;;;;;;;2.05;1.00;;;21.00;99.90;;;;;;5033852;28;20029;-72
2022/09/15 12:36:54;;;;;;;4.35;1.00;;;20.90;99.90;;;;;;5034553;28;20126;-71
2022/09/15 12:39:29;;;;;;;1.50;0.90;;;20.80;99.90;;;;;;5033080;28;20075;-70
2022/09/15 12:42:13;;;;;;;1.80;0.90;;;20.70;99.90;;;;;;5034405;28;20121;-70
2022/09/15 12:44:44;;;;;;;3.53;1.10;;;20.70;99.90;;;;;;5035659;28;20116;-72
2022/09/15 12:47:39;;;;;;;2.15;1.20;;;20.70;99.90;;;;;;5035658;28;20025;-72
2022/09/15 12:50:27;;;;;;;4.00;1.00;;;20.70;99.90;;;;;;5035547;28;20025;-72
2022/09/15 12:53:00;;;;;;;2.47;1.20;;;20.80;99.90;;;;;;5035703;28;20029;-72
2022/09/15 12:55:34;;;;;;;2.47;1.05;;;20.80;99.90;;;;;;5035501;28;20021;-72
2022/09/15 12:58:13;;;;;;;1.33;0.80;;;20.80;99.90;;;;;;5035699;28;20025;-72
2022/09/15 13:00:41;;;;;;;3.55;1.10;;;20.80;99.90;;;;;;5035901;28;20108;-72
2022/09/15 13:03:52;;;;;;;2.42;1.02;;;20.80;99.90;;;;;;5035265;28;20033;-71
2022/09/15 13:06:28;;;;;;;4.60;1.27;;;20.70;99.90;;;;;;5035195;28;20104;-72
2022/09/15 13:09:00;;;;;;;3.53;1.00;;;20.70;99.90;;;;;;5035511;28;20394;-72
2022/09/15 13:11:30;;;;;;;2.78;1.48;;;20.70;99.90;;;;;;5035026;28;20025;-72
2022/09/15 13:14:14;;;;;;;3.97;1.08;;;20.70;99.90;;;;;;5035515;28;20022;-72